Time;durP1;ratioP1;P1;durP2;ratioP2;P2;SDS_P1;SDS_P2;PMS_P1;PMS_P2;Temp;Humidity;BMP_temperature;BMP_pressure;BME280_temperature;BME280_humidity;BME280_pressure;Samples;Min_cycle;Max_cycle;Signal;HPM_P1;HPM_P2
2023/05/24 00:01:41;;;;;;;10.97;2.63;;;8.20;99.90;;;;;;4989206;28;20058;-64
2023/05/24 00:04:07;;;;;;;18.63;2.85;;;8.20;99.90;;;;;;4983637;28;20054;-64
2023/05/24 00:06:36;;;;;;;10.40;3.13;;;8.10;99.90;;;;;;4987168;28;20045;-76
2023/05/24 00:09:05;;;;;;;15.02;2.92;;;8.20;99.90;;;;;;4993071;28;20045;-64
2023/05/24 00:11:30;;;;;;;15.13;3.50;;;8.20;99.90;;;;;;4994148;28;20088;-64
2023/05/24 00:13:56;;;;;;;14.03;3.27;;;8.20;99.90;;;;;;4980997;28;20018;-64
2023/05/24 00:16:22;;;;;;;15.67;2.77;;;8.20;99.90;;;;;;4994495;28;20045;-64
2023/05/24 00:18:49;;;;;;;12.60;2.93;;;8.20;99.90;;;;;;4980434;28;20442;-64
2023/05/24 00:21:15;;;;;;;17.52;3.00;;;8.20;99.90;;;;;;4993848;28;20073;-64
2023/05/24 00:23:41;;;;;;;15.70;3.37;;;8.20;99.90;;;;;;4997777;28;20390;-64
2023/05/24 00:26:07;;;;;;;14.70;3.57;;;8.40;99.90;;;;;;4987217;28;20030;-64
2023/05/24 00:28:34;;;;;;;9.88;2.55;;;8.40;99.90;;;;;;4997942;28;20031;-64
2023/05/24 00:31:00;;;;;;;9.05;2.55;;;8.50;99.90;;;;;;4982807;28;20384;-64
2023/05/24 00:33:27;;;;;;;14.52;2.65;;;8.40;99.90;;;;;;4992480;28;20061;-64
2023/05/24 00:35:55;;;;;;;16.92;2.83;;;8.30;99.90;;;;;;4991461;28;20038;-64
2023/05/24 00:38:25;;;;;;;12.60;2.95;;;8.30;99.90;;;;;;4993259;28;20041;-64
2023/05/24 00:40:55;;;;;;;11.98;2.65;;;8.30;99.90;;;;;;4991779;28;20374;-64
2023/05/24 00:43:20;;;;;;;14.27;2.88;;;8.20;99.90;;;;;;4996440;28;20061;-64
2023/05/24 00:45:46;;;;;;;11.77;2.70;;;8.20;99.90;;;;;;4997142;28;20073;-64
2023/05/24 00:48:13;;;;;;;15.53;3.20;;;8.10;99.90;;;;;;4996009;28;20026;-65
2023/05/24 00:50:40;;;;;;;11.27;2.20;;;8.10;99.90;;;;;;4996102;28;20343;-64
2023/05/24 00:53:06;;;;;;;15.73;2.90;;;8.00;99.90;;;;;;4997788;28;20022;-64
2023/05/24 00:55:35;;;;;;;16.27;3.33;;;7.90;99.90;;;;;;4995588;28;20318;-64
2023/05/24 00:58:01;;;;;;;11.38;2.58;;;7.80;99.90;;;;;;5009798;28;20422;-64
2023/05/24 01:00:28;;;;;;;19.17;2.95;;;7.70;99.90;;;;;;4994069;28;20054;-64
2023/05/24 01:02:54;;;;;;;;;;;7.80;99.90;;;;;;4995273;28;20037;-64
2023/05/24 01:05:20;;;;;;;13.33;2.67;;;7.80;99.90;;;;;;4995321;28;19914;-65
2023/05/24 01:08:01;;;;;;;17.75;3.45;;;7.70;99.90;;;;;;4997167;28;20317;-64
2023/05/24 01:10:33;;;;;;;11.82;3.22;;;7.80;99.90;;;;;;4984609;28;20540;-64
2023/05/24 01:13:03;;;;;;;15.77;2.67;;;7.80;99.90;;;;;;4996164;28;20106;-64
2023/05/24 01:16:04;;;;;;;22.83;3.28;;;7.90;99.90;;;;;;4995228;28;20058;-64
2023/05/24 01:18:38;;;;;;;11.32;2.85;;;7.90;99.90;;;;;;4986180;28;20031;-64
2023/05/24 01:21:09;;;;;;;9.82;2.70;;;7.90;99.90;;;;;;4992319;28;20030;-64
2023/05/24 01:23:53;;;;;;;20.35;3.55;;;7.90;99.90;;;;;;4996252;28;20113;-64
2023/05/24 01:26:30;;;;;;;14.15;3.10;;;8.00;99.90;;;;;;4992663;28;20113;-64
2023/05/24 01:28:58;;;;;;;11.68;3.10;;;8.00;99.90;;;;;;4995160;28;20484;-64
2023/05/24 01:31:25;;;;;;;21.50;3.08;;;8.10;99.90;;;;;;5003055;28;20438;-64
2023/05/24 01:33:50;;;;;;;17.55;3.90;;;8.10;99.90;;;;;;4993495;28;20039;-64
2023/05/24 01:36:16;;;;;;;17.03;3.03;;;8.10;99.90;;;;;;4991762;28;20034;-76
2023/05/24 01:38:43;;;;;;;14.07;4.00;;;8.10;99.90;;;;;;4990558;28;20030;-64
2023/05/24 01:41:30;;;;;;;9.95;3.25;;;8.10;99.90;;;;;;4989161;28;20136;-64
2023/05/24 01:44:04;;;;;;;14.90;2.88;;;8.10;99.90;;;;;;4992625;28;20037;-65
2023/05/24 01:46:37;;;;;;;16.77;3.28;;;8.10;99.90;;;;;;4992445;28;20034;-64
2023/05/24 01:49:12;;;;;;;17.35;3.05;;;8.20;99.90;;;;;;4991327;28;20428;-76
2023/05/24 01:51:55;;;;;;;12.68;3.05;;;8.20;99.90;;;;;;4989767;28;20121;-64
2023/05/24 01:54:24;;;;;;;16.38;3.40;;;8.20;99.90;;;;;;4986235;28;20114;-64
2023/05/24 01:56:53;;;;;;;19.63;4.45;;;8.30;99.90;;;;;;4987184;28;20078;-64
2023/05/24 01:59:22;;;;;;;26.02;3.67;;;8.30;99.90;;;;;;4987656;28;20148;-64
2023/05/24 02:01:49;;;;;;;15.75;3.30;;;8.30;99.90;;;;;;4993962;28;20052;-64
2023/05/24 02:04:15;;;;;;;;;;;8.30;99.90;;;;;;5002559;28;20039;-64
2023/05/24 02:06:41;;;;;;;21.10;3.60;;;8.30;99.90;;;;;;4992636;28;19920;-64
2023/05/24 02:09:07;;;;;;;18.33;4.07;;;8.40;99.90;;;;;;5002411;28;20036;-64
2023/05/24 02:11:33;;;;;;;17.47;2.67;;;8.30;99.90;;;;;;5001950;28;20493;-76
2023/05/24 02:13:58;;;;;;;18.13;2.97;;;8.30;99.90;;;;;;4997834;28;20096;-64
2023/05/24 02:16:25;;;;;;;11.93;3.33;;;8.30;99.90;;;;;;4995357;28;20062;-64
2023/05/24 02:18:51;;;;;;;16.02;3.22;;;8.30;99.90;;;;;;5003230;28;20307;-64
2023/05/24 02:21:17;;;;;;;17.55;3.50;;;8.40;99.90;;;;;;4998115;28;20411;-65
2023/05/24 02:23:43;;;;;;;19.80;3.70;;;8.40;99.90;;;;;;4995941;28;20033;-64
2023/05/24 02:26:12;;;;;;;16.43;3.47;;;8.40;99.90;;;;;;5002144;28;20177;-65
2023/05/24 02:28:38;;;;;;;20.50;3.85;;;8.40;99.90;;;;;;5010025;28;20026;-76
2023/05/24 02:31:04;;;;;;;13.70;2.83;;;8.30;99.90;;;;;;4994916;28;20027;-64
2023/05/24 02:33:30;;;;;;;14.98;2.80;;;8.30;99.90;;;;;;4991625;28;20079;-64
2023/05/24 02:35:56;;;;;;;14.23;3.93;;;8.30;99.90;;;;;;5003512;28;20106;-64
2023/05/24 02:38:22;;;;;;;16.23;3.27;;;8.30;99.90;;;;;;5001725;28;20105;-65
2023/05/24 02:40:47;;;;;;;15.13;3.47;;;8.20;99.90;;;;;;5000088;28;20023;-64
2023/05/24 02:43:13;;;;;;;14.97;3.13;;;8.20;99.90;;;;;;4992825;28;20442;-64
2023/05/24 02:45:39;;;;;;;14.03;3.60;;;8.20;99.90;;;;;;4993910;28;20034;-64
2023/05/24 02:48:05;;;;;;;8.90;3.10;;;8.20;99.90;;;;;;4995280;28;20124;-65
2023/05/24 02:50:31;;;;;;;19.80;3.97;;;8.20;99.90;;;;;;4993357;28;20023;-64
2023/05/24 02:52:57;;;;;;;13.97;3.90;;;8.10;99.90;;;;;;4994490;28;20326;-64
2023/05/24 02:55:22;;;;;;;24.00;5.17;;;8.10;99.90;;;;;;4994808;28;20056;-76
2023/05/24 02:57:48;;;;;;;14.80;4.07;;;8.10;99.90;;;;;;4992962;28;20030;-64
2023/05/24 03:00:14;;;;;;;14.70;3.73;;;8.10;99.90;;;;;;4994256;28;20019;-64
2023/05/24 03:02:40;;;;;;;11.57;3.67;;;8.10;99.90;;;;;;4994700;28;20444;-64
2023/05/24 03:05:07;;;;;;;14.03;3.53;;;8.10;99.90;;;;;;4993171;28;20026;-78
2023/05/24 03:07:32;;;;;;;14.85;4.10;;;8.10;99.90;;;;;;4994211;28;20085;-64
2023/05/24 03:09:58;;;;;;;15.70;4.60;;;8.00;99.90;;;;;;4994197;28;20358;-64
2023/05/24 03:12:24;;;;;;;22.73;5.30;;;8.00;99.90;;;;;;4994630;28;20026;-64
2023/05/24 03:14:50;;;;;;;17.80;4.83;;;8.00;99.90;;;;;;4994293;28;20326;-64
2023/05/24 03:17:16;;;;;;;18.73;5.27;;;8.00;99.90;;;;;;4993839;28;20318;-64
2023/05/24 03:19:41;;;;;;;24.57;4.43;;;8.00;99.90;;;;;;4993984;28;20042;-64
2023/05/24 03:22:07;;;;;;;18.40;5.13;;;8.00;99.90;;;;;;4992975;28;20030;-77
2023/05/24 03:24:33;;;;;;;18.53;4.67;;;8.00;99.90;;;;;;4994324;28;20460;-64
2023/05/24 03:26:59;;;;;;;13.17;4.50;;;8.00;99.90;;;;;;4987089;28;20043;-64
2023/05/24 03:29:25;;;;;;;13.55;4.60;;;8.00;99.90;;;;;;4995095;28;20291;-64
2023/05/24 03:31:51;;;;;;;16.33;4.53;;;8.10;99.90;;;;;;4994304;28;20033;-65
2023/05/24 03:34:16;;;;;;;21.30;5.13;;;8.10;99.90;;;;;;4992505;28;20061;-64
2023/05/24 03:36:42;;;;;;;14.73;4.73;;;8.10;99.90;;;;;;4993708;28;20026;-64
2023/05/24 03:39:09;;;;;;;13.10;4.83;;;8.00;99.90;;;;;;4993426;28;20080;-77
2023/05/24 03:41:35;;;;;;;15.73;4.32;;;8.00;99.90;;;;;;4993320;28;20121;-64
2023/05/24 03:44:00;;;;;;;11.80;3.80;;;8.00;99.90;;;;;;4992675;28;20125;-64
2023/05/24 03:46:26;;;;;;;20.43;5.50;;;8.00;99.90;;;;;;4993330;28;20165;-64
2023/05/24 03:48:52;;;;;;;15.37;4.63;;;8.00;99.90;;;;;;4994084;28;20033;-65
2023/05/24 03:51:18;;;;;;;19.43;4.80;;;8.00;99.90;;;;;;4993374;28;20414;-64
2023/05/24 03:53:44;;;;;;;14.30;4.40;;;8.00;99.90;;;;;;4993262;28;20046;-64
2023/05/24 03:56:10;;;;;;;12.47;3.70;;;8.00;99.90;;;;;;4993073;28;20030;-64
2023/05/24 03:58:36;;;;;;;13.45;4.15;;;8.00;99.90;;;;;;4998874;28;20360;-64
2023/05/24 04:01:02;;;;;;;11.23;4.07;;;7.90;99.90;;;;;;5003377;28;20041;-64
2023/05/24 04:03:28;;;;;;;12.57;4.53;;;8.00;99.90;;;;;;4998615;28;20018;-64
2023/05/24 04:05:53;;;;;;;15.37;4.13;;;8.00;99.90;;;;;;4996726;28;20018;-77
2023/05/24 04:08:19;;;;;;;9.33;4.20;;;8.00;99.90;;;;;;4998135;28;20377;-64
2023/05/24 04:10:45;;;;;;;10.40;4.03;;;8.00;99.90;;;;;;4997451;28;20033;-64
2023/05/24 04:13:11;;;;;;;15.93;4.17;;;8.00;99.90;;;;;;4997565;28;20263;-64
2023/05/24 04:15:37;;;;;;;26.03;5.00;;;8.00;99.90;;;;;;4997473;28;20038;-79
2023/05/24 04:18:05;;;;;;;14.37;4.20;;;8.00;99.90;;;;;;4997751;28;20022;-65
2023/05/24 04:20:31;;;;;;;9.20;3.90;;;8.00;99.90;;;;;;4998395;28;20479;-64
2023/05/24 04:22:57;;;;;;;12.53;3.37;;;8.00;99.90;;;;;;4997522;28;20026;-64
2023/05/24 04:25:23;;;;;;;12.35;3.50;;;8.00;99.90;;;;;;4997518;28;20106;-65
2023/05/24 04:27:49;;;;;;;13.83;4.10;;;8.10;99.90;;;;;;4995032;28;20105;-64
2023/05/24 04:30:16;;;;;;;19.52;4.07;;;8.10;99.90;;;;;;4996043;28;21509;-64
2023/05/24 04:32:46;;;;;;;20.75;3.83;;;8.10;99.90;;;;;;4988882;28;20023;-73
2023/05/24 04:35:12;;;;;;;14.23;4.05;;;8.20;99.90;;;;;;4988665;28;20050;-64
2023/05/24 04:37:39;;;;;;;15.90;3.78;;;8.30;99.90;;;;;;4988701;28;20481;-65
2023/05/24 04:40:07;;;;;;;16.42;4.10;;;8.30;99.90;;;;;;4990475;28;20038;-65
2023/05/24 04:42:34;;;;;;;15.25;3.58;;;8.40;99.90;;;;;;4989345;28;20029;-65
2023/05/24 04:45:00;;;;;;;15.75;4.35;;;8.50;99.90;;;;;;4985873;28;20121;-65
2023/05/24 04:47:26;;;;;;;19.97;4.40;;;8.50;99.90;;;;;;4987299;28;20097;-64
2023/05/24 04:49:52;;;;;;;17.17;3.77;;;8.60;99.90;;;;;;4990809;28;20075;-64
2023/05/24 04:52:18;;;;;;;22.80;5.22;;;8.70;99.90;;;;;;4987291;28;20023;-64
2023/05/24 04:54:44;;;;;;;16.10;4.27;;;8.80;99.90;;;;;;4995412;28;20044;-65
2023/05/24 04:57:10;;;;;;;12.93;4.10;;;8.90;99.90;;;;;;4989695;28;20034;-64
2023/05/24 04:59:35;;;;;;;19.27;4.13;;;8.90;99.90;;;;;;4997649;28;20033;-64
2023/05/24 05:02:01;;;;;;;19.27;4.17;;;9.00;99.90;;;;;;4999225;28;20025;-64
2023/05/24 05:04:27;;;;;;;16.10;4.40;;;9.10;99.90;;;;;;4997550;28;20022;-64
2023/05/24 05:06:54;;;;;;;11.87;3.80;;;9.20;99.90;;;;;;4994128;28;20034;-78
2023/05/24 05:09:21;;;;;;;19.98;3.70;;;9.40;99.90;;;;;;4996937;28;20045;-65
2023/05/24 05:11:47;;;;;;;14.20;4.25;;;9.50;99.90;;;;;;4987481;28;20480;-64
2023/05/24 05:14:13;;;;;;;16.20;4.07;;;9.50;99.90;;;;;;4985250;28;20030;-64
2023/05/24 05:16:40;;;;;;;14.43;3.57;;;9.60;99.90;;;;;;5002808;28;20144;-76
2023/05/24 05:19:06;;;;;;;15.93;4.00;;;9.60;99.90;;;;;;4987605;28;20272;-64
2023/05/24 05:21:32;;;;;;;14.98;4.28;;;9.80;99.90;;;;;;4989445;28;20442;-64
2023/05/24 05:23:59;;;;;;;25.75;3.78;;;9.80;99.90;;;;;;4985892;28;20105;-64
2023/05/24 05:26:29;;;;;;;17.67;3.88;;;9.80;99.90;;;;;;4984388;28;20044;-65
2023/05/24 05:28:56;;;;;;;18.40;3.50;;;9.80;99.90;;;;;;4983980;28;20295;-64
2023/05/24 05:31:22;;;;;;;14.75;3.47;;;10.00;99.90;;;;;;4988828;28;20054;-65
2023/05/24 05:33:48;;;;;;;13.52;4.20;;;10.10;99.90;;;;;;4996057;28;20092;-64
2023/05/24 05:36:15;;;;;;;15.83;3.80;;;10.10;99.90;;;;;;4991481;28;20406;-64
2023/05/24 05:38:41;;;;;;;16.05;4.13;;;10.10;99.90;;;;;;4989835;28;20073;-65
2023/05/24 05:41:07;;;;;;;10.80;3.40;;;10.10;99.90;;;;;;4989347;28;20042;-64
2023/05/24 05:43:33;;;;;;;18.42;3.17;;;10.20;99.90;;;;;;4992065;28;20041;-64
2023/05/24 05:46:01;;;;;;;12.82;4.07;;;10.20;99.90;;;;;;4991507;28;20058;-64
2023/05/24 05:48:27;;;;;;;19.20;4.22;;;10.20;99.90;;;;;;4989061;28;20082;-65
2023/05/24 05:50:53;;;;;;;23.97;3.63;;;10.30;99.90;;;;;;5000992;28;20113;-65
2023/05/24 05:53:19;;;;;;;12.90;3.77;;;10.40;99.90;;;;;;4991271;28;20440;-65
2023/05/24 05:55:45;;;;;;;11.40;3.67;;;10.40;99.90;;;;;;5000212;28;20488;-64
2023/05/24 05:58:11;;;;;;;19.53;4.23;;;10.40;99.90;;;;;;4995546;28;20022;-64
2023/05/24 06:00:37;;;;;;;17.07;3.20;;;10.60;99.90;;;;;;4997815;28;20019;-64
2023/05/24 06:03:03;;;;;;;13.77;3.03;;;10.70;99.90;;;;;;4995315;28;20085;-64
2023/05/24 06:05:29;;;;;;;12.30;3.83;;;10.70;99.90;;;;;;4995485;28;20508;-65
2023/05/24 06:07:55;;;;;;;8.30;2.63;;;10.80;99.90;;;;;;4995768;28;20322;-78
2023/05/24 06:10:21;;;;;;;10.33;2.87;;;10.90;99.90;;;;;;4992379;28;20428;-64
2023/05/24 06:12:47;;;;;;;9.80;3.17;;;10.90;99.90;;;;;;4993295;28;20042;-64
2023/05/24 06:15:13;;;;;;;18.87;3.33;;;11.10;99.90;;;;;;4994860;28;20544;-64
2023/05/24 06:17:40;;;;;;;7.00;2.47;;;11.10;99.90;;;;;;4995872;28;20018;-64
2023/05/24 06:20:14;;;;;;;18.95;4.00;;;11.20;99.90;;;;;;4991279;28;20030;-64
2023/05/24 06:22:41;;;;;;;15.10;3.63;;;11.30;99.90;;;;;;4995792;28;20096;-64
2023/05/24 06:25:08;;;;;;;13.85;3.28;;;11.30;99.90;;;;;;4992157;28;20414;-64
2023/05/24 06:27:33;;;;;;;14.68;3.08;;;11.30;99.90;;;;;;4993220;28;20026;-65
2023/05/24 06:29:59;;;;;;;16.30;3.30;;;11.40;99.90;;;;;;4991480;28;20033;-65
2023/05/24 06:32:25;;;;;;;16.40;2.73;;;11.30;99.90;;;;;;5004949;28;20026;-72
2023/05/24 06:34:51;;;;;;;16.17;3.03;;;11.30;99.90;;;;;;4995372;28;20085;-64
2023/05/24 06:37:17;;;;;;;17.53;3.23;;;11.40;99.90;;;;;;4995380;28;20015;-65
2023/05/24 06:39:43;;;;;;;18.47;2.53;;;11.40;99.90;;;;;;4995775;28;20687;-64
2023/05/24 06:42:09;;;;;;;17.03;2.77;;;11.30;99.90;;;;;;4995372;28;20041;-77
2023/05/24 06:44:35;;;;;;;15.35;2.83;;;11.30;99.90;;;;;;4995735;28;20101;-65
2023/05/24 06:47:01;;;;;;;11.73;2.28;;;11.40;99.90;;;;;;5007705;28;20085;-65
2023/05/24 06:49:27;;;;;;;9.80;2.53;;;11.40;99.90;;;;;;4995156;28;20030;-66
2023/05/24 06:51:54;;;;;;;15.60;3.40;;;11.40;99.90;;;;;;4995176;28;20435;-66
2023/05/24 06:54:20;;;;;;;9.45;2.20;;;11.50;99.90;;;;;;4994297;28;20321;-65
2023/05/24 06:56:46;;;;;;;14.73;3.05;;;11.50;99.90;;;;;;4994822;28;20019;-64
2023/05/24 06:59:12;;;;;;;12.85;2.70;;;11.70;99.90;;;;;;4995711;28;20034;-81
2023/05/24 07:01:41;;;;;;;12.33;2.73;;;11.60;99.90;;;;;;4994895;28;20026;-64
2023/05/24 07:04:08;;;;;;;19.33;3.05;;;11.80;99.90;;;;;;4994365;28;20109;-64
2023/05/24 07:06:34;;;;;;;;;;;11.90;99.90;;;;;;4995364;28;20026;-66
2023/05/24 07:09:03;;;;;;;8.77;2.75;;;12.00;99.90;;;;;;4995947;28;20315;-64
2023/05/24 07:11:30;;;;;;;17.63;3.78;;;12.00;99.90;;;;;;4991741;28;20344;-64
2023/05/24 07:13:56;;;;;;;;;;;12.00;99.90;;;;;;4994944;28;20022;-64
2023/05/24 07:16:21;;;;;;;15.93;2.65;;;11.90;99.90;;;;;;5008774;28;19940;-80
2023/05/24 07:18:47;;;;;;;15.07;3.67;;;12.00;99.90;;;;;;4992684;28;20023;-64
2023/05/24 07:21:13;;;;;;;14.23;3.50;;;12.10;99.90;;;;;;4988281;28;20418;-64
2023/05/24 07:23:39;;;;;;;14.17;3.00;;;12.10;99.90;;;;;;4984453;28;20065;-66
2023/05/24 07:26:05;;;;;;;11.27;3.13;;;12.20;99.90;;;;;;4995211;28;20030;-65
2023/05/24 07:28:32;;;;;;;17.20;3.03;;;12.30;99.90;;;;;;5001337;28;20456;-64
2023/05/24 07:30:58;;;;;;;13.27;3.38;;;12.30;99.90;;;;;;4987111;28;20365;-65
2023/05/24 07:33:23;;;;;;;16.97;3.07;;;12.30;99.90;;;;;;4989680;28;20429;-82
2023/05/24 07:35:52;;;;;;;12.97;3.07;;;12.30;99.90;;;;;;4994260;28;20053;-65
2023/05/24 07:38:18;;;;;;;12.70;3.17;;;12.50;99.90;;;;;;4987904;28;20061;-65
2023/05/24 07:40:44;;;;;;;16.63;3.13;;;12.40;99.90;;;;;;4984246;28;20054;-64
2023/05/24 07:43:10;;;;;;;18.47;3.17;;;12.40;99.90;;;;;;4982053;28;20065;-66
2023/05/24 07:45:36;;;;;;;15.30;2.88;;;12.40;99.90;;;;;;4994974;28;20383;-65
2023/05/24 07:48:02;;;;;;;19.10;2.83;;;12.50;99.90;;;;;;5003052;28;20101;-64
2023/05/24 07:50:28;;;;;;;11.73;3.30;;;12.60;99.90;;;;;;4996732;28;20037;-65
2023/05/24 07:52:57;;;;;;;14.03;2.83;;;12.60;99.90;;;;;;5006621;28;20054;-64
2023/05/24 07:55:23;;;;;;;9.32;2.67;;;12.60;99.90;;;;;;5004282;28;20329;-64
2023/05/24 07:57:48;;;;;;;14.00;2.90;;;12.50;99.90;;;;;;5008109;28;20464;-64
2023/05/24 08:00:15;;;;;;;14.30;4.10;;;12.40;99.90;;;;;;5001985;28;20035;-81
2023/05/24 08:02:42;;;;;;;15.45;3.30;;;12.40;99.90;;;;;;5012661;28;20055;-65
2023/05/24 08:05:13;;;;;;;14.70;3.65;;;12.50;99.90;;;;;;4993877;28;20045;-65
2023/05/24 08:07:40;;;;;;;15.73;3.42;;;12.60;99.90;;;;;;4992627;28;20160;-69
2023/05/24 08:10:08;;;;;;;13.43;3.15;;;12.60;99.90;;;;;;5006193;28;20019;-65
2023/05/24 08:12:34;;;;;;;13.20;3.90;;;12.60;99.90;;;;;;4988462;28;20124;-65
2023/05/24 08:14:59;;;;;;;15.33;3.00;;;12.80;99.90;;;;;;4987099;28;20081;-65
2023/05/24 08:17:26;;;;;;;7.43;2.20;;;13.00;99.90;;;;;;4997316;28;20022;-66
2023/05/24 08:19:52;;;;;;;12.85;2.60;;;13.30;99.90;;;;;;5013378;28;20026;-64
2023/05/24 08:22:18;;;;;;;15.77;2.87;;;13.40;99.90;;;;;;4993507;28;20092;-65
2023/05/24 08:24:44;;;;;;;13.40;2.90;;;13.20;99.90;;;;;;4990494;28;20428;-65
2023/05/24 08:27:10;;;;;;;13.77;3.00;;;13.30;99.90;;;;;;4994033;28;20031;-66
2023/05/24 08:29:37;;;;;;;16.20;3.72;;;13.60;99.90;;;;;;5006320;28;20267;-65
2023/05/24 08:32:08;;;;;;;14.55;3.88;;;13.60;99.90;;;;;;5003343;28;20046;-64
2023/05/24 08:34:37;;;;;;;10.32;2.35;;;13.70;99.90;;;;;;5005505;28;20030;-66
2023/05/24 08:37:08;;;;;;;12.85;2.67;;;13.80;99.90;;;;;;5005801;28;20377;-66
2023/05/24 08:39:33;;;;;;;13.95;3.10;;;14.00;99.90;;;;;;4999429;28;20088;-66
2023/05/24 08:42:00;;;;;;;20.20;3.67;;;14.20;99.90;;;;;;4990055;28;20034;-66
2023/05/24 08:44:28;;;;;;;12.10;2.85;;;14.40;99.90;;;;;;4990529;28;20022;-64
2023/05/24 08:46:59;;;;;;;14.50;3.58;;;14.40;99.90;;;;;;5012313;28;20057;-65
2023/05/24 08:49:25;;;;;;;16.65;3.33;;;14.10;99.90;;;;;;5006083;28;20397;-66
2023/05/24 08:51:51;;;;;;;17.23;3.07;;;14.00;99.90;;;;;;5001114;28;20035;-65
2023/05/24 08:54:19;;;;;;;11.75;2.90;;;14.10;99.90;;;;;;4993343;28;20058;-66
2023/05/24 08:56:45;;;;;;;16.45;3.03;;;14.30;99.90;;;;;;4994557;28;20129;-64
2023/05/24 08:59:12;;;;;;;13.67;3.80;;;14.40;99.90;;;;;;4988945;28;20106;-65
2023/05/24 09:01:40;;;;;;;12.18;3.08;;;14.30;99.90;;;;;;5000631;28;20279;-79
2023/05/24 09:04:07;;;;;;;21.42;3.40;;;14.40;99.90;;;;;;5011863;28;20104;-65
2023/05/24 09:06:33;;;;;;;15.73;3.17;;;14.70;99.90;;;;;;5005345;28;20432;-65
2023/05/24 09:09:02;;;;;;;10.83;3.23;;;14.50;99.90;;;;;;5015432;28;20038;-73
2023/05/24 09:11:30;;;;;;;13.40;3.70;;;14.50;99.90;;;;;;5011218;28;20027;-66
2023/05/24 09:13:57;;;;;;;16.55;3.47;;;14.60;99.90;;;;;;5006475;28;20030;-65
2023/05/24 09:16:23;;;;;;;12.82;3.03;;;14.30;99.90;;;;;;5000031;28;20048;-79
2023/05/24 09:18:48;;;;;;;9.40;2.97;;;14.50;99.90;;;;;;5004894;28;20021;-75
2023/05/24 09:21:15;;;;;;;16.97;3.30;;;14.60;99.90;;;;;;5000750;28;20034;-65
2023/05/24 09:23:41;;;;;;;15.80;3.15;;;14.50;99.90;;;;;;4997677;28;20071;-65
2023/05/24 09:26:08;;;;;;;15.77;3.75;;;14.40;99.90;;;;;;5001440;28;20022;-65
2023/05/24 09:28:35;;;;;;;21.48;3.40;;;14.40;99.90;;;;;;4995489;28;20041;-65
2023/05/24 09:31:03;;;;;;;12.38;3.08;;;14.30;99.90;;;;;;4993776;28;20023;-66
2023/05/24 09:33:31;;;;;;;11.80;3.42;;;14.50;99.90;;;;;;5000956;28;20421;-66
2023/05/24 09:36:03;;;;;;;10.80;2.63;;;14.60;99.90;;;;;;4990325;28;20081;-67
2023/05/24 09:38:29;;;;;;;14.35;3.63;;;14.70;99.90;;;;;;4986015;28;20517;-80
2023/05/24 09:41:03;;;;;;;15.50;3.28;;;14.80;99.90;;;;;;4988431;28;20422;-65
2023/05/24 09:43:33;;;;;;;12.00;2.95;;;15.00;99.90;;;;;;4989152;28;20361;-66
2023/05/24 09:46:04;;;;;;;16.83;2.78;;;15.10;99.90;;;;;;4987588;28;20024;-65
2023/05/24 09:48:30;;;;;;;18.25;3.42;;;15.00;99.90;;;;;;5002077;28;20185;-66
2023/05/24 09:51:01;;;;;;;17.80;3.25;;;14.80;99.90;;;;;;5001123;28;20364;-65
2023/05/24 09:53:27;;;;;;;14.65;3.28;;;14.90;99.90;;;;;;4989048;28;20061;-65
2023/05/24 09:55:54;;;;;;;9.27;2.93;;;14.80;99.90;;;;;;5008976;28;20111;-67
2023/05/24 09:58:21;;;;;;;13.93;2.88;;;14.80;99.90;;;;;;4997373;28;20314;-64
2023/05/24 10:00:47;;;;;;;;;;;14.90;99.90;;;;;;5003505;28;20035;-66
2023/05/24 10:03:13;;;;;;;13.05;2.63;;;15.00;99.90;;;;;;5000897;28;19910;-67
2023/05/24 10:05:45;;;;;;;20.48;3.83;;;15.00;99.90;;;;;;4991849;28;20049;-65
2023/05/24 10:08:13;;;;;;;27.35;4.50;;;15.20;99.90;;;;;;4992347;28;20022;-74
2023/05/24 10:10:40;;;;;;;10.55;2.60;;;15.20;99.90;;;;;;4992883;28;20354;-82
2023/05/24 10:13:06;;;;;;;11.25;3.22;;;15.20;99.90;;;;;;4987247;28;20023;-81
2023/05/24 10:15:32;;;;;;;12.70;3.63;;;15.30;99.90;;;;;;5001385;28;20053;-65
2023/05/24 10:18:06;;;;;;;14.33;2.97;;;15.40;99.90;;;;;;4998731;28;20307;-80
2023/05/24 10:20:34;;;;;;;11.85;2.78;;;15.30;99.90;;;;;;4984274;28;20310;-65
2023/05/24 10:23:03;;;;;;;11.35;3.03;;;15.50;99.90;;;;;;4985457;28;20030;-65
2023/05/24 10:25:33;;;;;;;15.40;3.13;;;15.10;99.90;;;;;;5014176;28;20034;-65
2023/05/24 10:28:11;;;;;;;14.30;2.60;;;15.10;99.90;;;;;;5000405;28;20030;-78
2023/05/24 10:31:01;;;;;;;11.40;3.10;;;15.40;99.90;;;;;;5000385;28;20025;-66
2023/05/24 10:33:29;;;;;;;12.18;3.17;;;15.30;99.90;;;;;;5004378;28;20433;-66
2023/05/24 10:35:56;;;;;;;19.30;3.97;;;15.40;99.90;;;;;;5015309;28;20026;-66
2023/05/24 10:38:23;;;;;;;20.95;3.72;;;15.20;99.90;;;;;;5015132;28;20052;-71
2023/05/24 10:40:49;;;;;;;;;;;15.30;99.90;;;;;;4993458;28;20037;-73
2023/05/24 10:43:16;;;;;;;11.13;2.78;;;15.30;99.90;;;;;;5002510;28;19910;-66
2023/05/24 10:45:48;;;;;;;10.60;2.47;;;15.40;99.90;;;;;;4999228;28;20057;-68
2023/05/24 10:48:16;;;;;;;11.57;3.15;;;15.50;99.90;;;;;;5010272;28;20018;-79
2023/05/24 10:50:43;;;;;;;12.77;2.60;;;15.60;99.90;;;;;;5011575;28;20058;-68
2023/05/24 10:53:15;;;;;;;17.25;3.05;;;15.60;99.90;;;;;;4993803;28;20402;-67
2023/05/24 10:56:02;;;;;;;20.83;4.13;;;15.60;99.90;;;;;;4990685;28;20027;-77
2023/05/24 10:58:50;;;;;;;8.45;1.85;;;15.60;99.90;;;;;;4981992;28;20094;-75
2023/05/24 11:01:31;;;;;;;14.63;2.95;;;15.80;99.90;;;;;;4990079;28;20041;-67
2023/05/24 11:04:11;;;;;;;9.18;2.72;;;15.70;99.90;;;;;;4990826;28;20026;-66
2023/05/24 11:06:56;;;;;;;9.85;2.63;;;15.70;99.90;;;;;;4988617;28;20042;-68
2023/05/24 11:09:23;;;;;;;17.10;2.43;;;15.70;99.90;;;;;;5002369;28;20034;-65
2023/05/24 11:11:53;;;;;;;10.80;2.65;;;15.40;99.90;;;;;;4988111;28;20053;-79
2023/05/24 11:14:24;;;;;;;16.70;2.83;;;15.50;99.90;;;;;;4993724;28;20037;-66
2023/05/24 11:16:50;;;;;;;14.35;2.90;;;15.60;99.90;;;;;;4987082;28;20437;-67
2023/05/24 11:19:21;;;;;;;13.65;3.00;;;15.80;99.90;;;;;;4992079;28;20026;-79
2023/05/24 11:21:57;;;;;;;11.65;2.58;;;15.70;99.90;;;;;;4986751;28;20022;-67
2023/05/24 11:24:24;;;;;;;9.90;2.50;;;15.70;99.90;;;;;;4983372;28;20023;-65
2023/05/24 11:26:51;;;;;;;12.55;2.85;;;15.50;99.90;;;;;;5005551;28;20046;-68
2023/05/24 11:29:20;;;;;;;13.35;2.15;;;15.50;99.90;;;;;;5006125;28;20031;-66
2023/05/24 11:31:51;;;;;;;10.73;2.33;;;15.30;99.90;;;;;;4993987;28;20030;-66
2023/05/24 11:34:23;;;;;;;7.32;2.38;;;15.20;99.90;;;;;;4997730;28;20049;-79
2023/05/24 11:36:52;;;;;;;10.55;2.15;;;15.20;99.90;;;;;;4997977;28;20354;-65
2023/05/24 11:39:18;;;;;;;16.15;2.20;;;15.10;99.90;;;;;;5005585;28;20436;-67
2023/05/24 11:41:44;;;;;;;13.85;2.83;;;15.10;99.90;;;;;;5005932;28;20030;-80
2023/05/24 11:44:11;;;;;;;11.48;2.05;;;15.30;99.90;;;;;;4994194;28;20125;-67
2023/05/24 11:46:38;;;;;;;14.95;2.70;;;15.30;99.90;;;;;;4995261;28;20030;-65
2023/05/24 11:49:05;;;;;;;15.88;2.70;;;15.20;99.90;;;;;;4996353;28;20026;-67
2023/05/24 11:51:33;;;;;;;14.50;2.80;;;15.20;99.90;;;;;;5008798;28;20038;-66
2023/05/24 11:54:00;;;;;;;12.93;2.80;;;15.30;99.90;;;;;;4997815;28;20026;-80
2023/05/24 11:56:28;;;;;;;15.68;2.50;;;15.30;99.90;;;;;;4990055;28;20022;-65
2023/05/24 11:59:04;;;;;;;6.95;1.33;;;15.20;99.90;;;;;;4990073;28;20468;-68
2023/05/24 12:01:30;;;;;;;16.67;2.72;;;15.10;99.90;;;;;;4986588;28;20034;-67
2023/05/24 12:03:56;;;;;;;11.90;2.07;;;15.00;99.90;;;;;;4996151;28;20066;-65
2023/05/24 12:06:22;;;;;;;9.88;2.55;;;14.90;99.90;;;;;;4994810;28;20026;-68
2023/05/24 12:08:48;;;;;;;15.67;3.00;;;15.10;99.90;;;;;;4980792;28;20422;-66
2023/05/24 12:11:15;;;;;;;12.53;2.57;;;15.10;99.90;;;;;;4985978;28;20109;-65
2023/05/24 12:13:41;;;;;;;16.25;3.33;;;15.20;99.90;;;;;;4983115;28;20703;-66
2023/05/24 12:16:07;;;;;;;10.13;2.60;;;15.10;99.90;;;;;;4991969;28;20077;-66
2023/05/24 12:18:33;;;;;;;13.97;2.77;;;15.30;99.90;;;;;;4991806;28;20266;-67
2023/05/24 12:20:59;;;;;;;9.03;2.10;;;15.30;99.90;;;;;;4987214;28;20342;-80
2023/05/24 12:23:31;;;;;;;13.20;3.27;;;15.50;99.90;;;;;;4995220;28;20045;-77
2023/05/24 12:26:00;;;;;;;13.82;3.50;;;15.50;99.90;;;;;;4991085;28;20118;-65
2023/05/24 12:28:31;;;;;;;13.10;2.45;;;15.50;99.90;;;;;;5001343;28;20030;-80
2023/05/24 12:30:57;;;;;;;16.05;2.38;;;15.60;99.90;;;;;;5007298;28;20030;-83
2023/05/24 12:33:23;;;;;;;9.13;2.13;;;15.50;99.90;;;;;;4998043;28;20057;-67
2023/05/24 12:35:52;;;;;;;6.20;2.28;;;15.50;99.90;;;;;;4998165;28;20033;-66
2023/05/24 12:38:24;;;;;;;7.32;1.98;;;15.60;99.90;;;;;;4997581;28;20076;-65
2023/05/24 12:40:53;;;;;;;10.75;2.05;;;15.40;99.90;;;;;;5001078;28;20080;-66
2023/05/24 12:43:20;;;;;;;9.93;2.25;;;15.30;99.90;;;;;;4987016;28;20027;-64
2023/05/24 12:45:46;;;;;;;12.38;2.28;;;15.10;99.90;;;;;;5006075;28;20422;-66